createdAt,value
2017-11-04T00:01:02.590Z,23.55
2017-11-04T00:03:29.257Z,24.15
2017-11-04T00:05:55.954Z,24.12
2017-11-04T00:08:22.698Z,24.95
2017-11-04T00:10:49.380Z,24.20
2017-11-04T00:13:15.982Z,24.17
2017-11-04T00:15:42.613Z,23.20
2017-11-04T00:18:09.299Z,23.67
2017-11-04T00:20:35.905Z,22.58
2017-11-04T00:23:02.633Z,22.92
2017-11-04T00:25:29.317Z,24.00
2017-11-04T00:27:55.922Z,22.05
2017-11-04T00:30:22.549Z,24.00
2017-11-04T00:32:49.157Z,28.55
2017-11-04T00:35:15.762Z,24.70
2017-11-04T00:37:42.383Z,25.52
2017-11-04T00:40:09.010Z,24.63
2017-11-04T00:42:35.625Z,27.50
2017-11-04T00:45:02.248Z,25.90
2017-11-04T00:47:28.922Z,26.08
2017-11-04T00:49:55.533Z,25.50
2017-11-04T00:52:22.213Z,25.75
2017-11-04T00:54:48.834Z,24.37
2017-11-04T00:57:15.439Z,27.27
2017-11-04T00:59:42.062Z,24.70
2017-11-04T01:02:08.674Z,24.05
2017-11-04T01:04:35.302Z,25.80
2017-11-04T01:07:01.910Z,26.80
2017-11-04T01:09:28.530Z,31.33
2017-11-04T01:11:55.154Z,26.92
2017-11-04T01:14:21.762Z,29.58
2017-11-04T01:16:48.385Z,30.65
2017-11-04T01:19:15.017Z,30.27
2017-11-04T01:21:41.621Z,30.15
2017-11-04T01:24:08.240Z,31.67
2017-11-04T01:26:34.864Z,30.83
2017-11-04T01:29:01.582Z,30.45
2017-11-04T01:31:28.215Z,31.48
2017-11-04T01:33:54.824Z,31.10
2017-11-04T01:36:21.498Z,30.60
2017-11-04T01:38:48.122Z,30.65
2017-11-04T01:41:14.733Z,32.90
2017-11-04T01:43:41.426Z,26.48
2017-11-04T01:46:08.045Z,30.63
2017-11-04T01:48:34.255Z,30.65
2017-11-04T01:51:00.881Z,27.80
2017-11-04T01:53:27.254Z,25.30
2017-11-04T01:55:53.857Z,26.30
2017-11-04T01:58:20.513Z,24.77
2017-11-04T02:00:47.109Z,24.80
2017-11-04T02:03:13.722Z,25.98
2017-11-04T02:05:40.457Z,26.87
2017-11-04T02:08:07.064Z,27.13
2017-11-04T02:10:33.682Z,23.67
2017-11-04T02:13:00.301Z,23.87
2017-11-04T02:15:26.949Z,24.95
2017-11-04T02:17:53.574Z,26.90
2017-11-04T02:20:20.187Z,25.80
2017-11-04T02:22:46.821Z,24.35
2017-11-04T02:25:13.447Z,23.95
2017-11-04T02:27:40.062Z,23.77
2017-11-04T02:30:06.671Z,25.35
2017-11-04T02:32:33.293Z,25.30
2017-11-04T02:34:59.903Z,25.20
2017-11-04T02:37:26.570Z,24.35
2017-11-04T02:39:53.198Z,23.35
2017-11-04T02:42:19.818Z,25.73
2017-11-04T02:44:46.477Z,24.92
2017-11-04T02:47:13.085Z,27.48
2017-11-04T02:49:39.695Z,26.50
2017-11-04T02:52:06.319Z,28.20
2017-11-04T02:54:32.930Z,28.83
2017-11-04T02:56:59.570Z,26.23
2017-11-04T02:59:26.194Z,24.95
2017-11-04T03:01:52.805Z,24.77
2017-11-04T03:04:19.482Z,25.20
2017-11-04T03:06:46.107Z,26.85
2017-11-04T03:09:12.712Z,23.95
2017-11-04T03:11:39.322Z,24.17
2017-11-04T03:14:05.945Z,23.12
2017-11-04T03:16:32.549Z,24.55
2017-11-04T03:18:59.218Z,24.83
2017-11-04T03:21:25.842Z,24.90
2017-11-04T03:23:52.449Z,26.37
2017-11-04T03:26:19.122Z,24.35
2017-11-04T03:28:45.733Z,25.05
2017-11-04T03:31:12.408Z,28.52
2017-11-04T03:33:39.026Z,26.25
2017-11-04T03:36:05.687Z,25.73
2017-11-04T03:38:32.310Z,26.98
2017-11-04T03:40:58.966Z,26.80
2017-11-04T03:43:25.610Z,29.25
2017-11-04T03:45:52.247Z,25.73
2017-11-04T03:48:18.854Z,25.00
2017-11-04T03:50:45.521Z,26.55
2017-11-04T03:53:12.146Z,27.42
2017-11-04T03:55:38.763Z,25.55
2017-11-04T03:58:05.369Z,26.73
2017-11-04T04:00:32.013Z,28.40
2017-11-04T04:02:58.619Z,30.17
2017-11-04T04:05:25.233Z,29.87
2017-11-04T04:07:51.894Z,33.65
2017-11-04T04:10:18.533Z,29.30
2017-11-04T04:12:45.169Z,29.65
2017-11-04T04:15:11.819Z,28.27
2017-11-04T04:17:38.428Z,32.70
2017-11-04T04:20:05.033Z,31.27
2017-11-04T04:22:31.657Z,32.05
2017-11-04T04:24:58.312Z,32.92
2017-11-04T04:27:24.934Z,32.40
2017-11-04T04:29:51.548Z,30.60
2017-11-04T04:32:18.194Z,31.62
2017-11-04T04:34:44.826Z,32.63
2017-11-04T04:37:11.430Z,32.97
2017-11-04T04:39:38.039Z,33.83
2017-11-04T04:42:04.666Z,29.85
2017-11-04T04:44:31.274Z,30.95
2017-11-04T04:46:57.899Z,27.95
2017-11-04T04:49:24.515Z,27.35
2017-11-04T04:51:51.144Z,29.33
2017-11-04T04:54:17.749Z,26.33
2017-11-04T04:56:44.361Z,28.67
2017-11-04T04:59:10.989Z,27.30
2017-11-04T05:01:37.598Z,25.25
2017-11-04T05:04:04.290Z,26.62
2017-11-04T05:06:31.018Z,25.23
2017-11-04T05:08:57.626Z,27.30
2017-11-04T05:11:24.241Z,27.60
2017-11-04T05:13:50.858Z,26.60
2017-11-04T05:16:17.466Z,30.30
2017-11-04T05:18:44.078Z,28.80
2017-11-04T05:21:10.758Z,27.35
2017-11-04T05:23:37.398Z,28.60
2017-11-04T05:26:04.009Z,28.60
2017-11-04T05:28:30.646Z,29.05
2017-11-04T05:30:57.274Z,29.77
2017-11-04T05:33:23.893Z,29.05
2017-11-04T05:35:50.517Z,28.27
2017-11-04T05:38:17.130Z,29.20
2017-11-04T05:40:43.733Z,27.08
2017-11-04T05:43:10.373Z,28.12
2017-11-04T05:45:36.988Z,27.27
2017-11-04T05:48:03.596Z,28.87
2017-11-04T05:50:30.218Z,27.62
2017-11-04T05:52:56.849Z,28.00
2017-11-04T05:55:23.479Z,26.60
2017-11-04T05:57:50.090Z,27.25
2017-11-04T06:00:16.718Z,25.67
2017-11-04T06:02:43.383Z,25.98
2017-11-04T06:05:09.990Z,25.62
2017-11-04T06:07:36.602Z,24.35
2017-11-04T06:10:04.138Z,25.30
2017-11-04T06:12:30.741Z,25.83
2017-11-04T06:14:57.382Z,22.60
2017-11-04T06:17:23.988Z,24.50
2017-11-04T06:19:50.603Z,23.92
2017-11-04T06:22:17.234Z,23.35
2017-11-04T06:24:43.847Z,23.15
2017-11-04T06:27:10.525Z,24.02
2017-11-04T06:29:37.160Z,22.42
2017-11-04T06:32:03.766Z,22.52
2017-11-04T06:34:30.384Z,22.98
2017-11-04T06:36:57.010Z,23.42
2017-11-04T06:39:23.617Z,24.63
2017-11-04T06:41:50.261Z,24.60
2017-11-04T06:44:16.882Z,24.73
2017-11-04T06:46:43.542Z,23.70
2017-11-04T06:49:10.154Z,25.33
2017-11-04T06:51:36.781Z,23.92
2017-11-04T06:54:03.457Z,25.85
2017-11-04T06:56:30.066Z,23.27
2017-11-04T06:58:56.695Z,25.02
2017-11-04T07:01:23.302Z,24.52
2017-11-04T07:03:49.906Z,24.17
2017-11-04T07:06:16.542Z,22.35
2017-11-04T07:08:43.155Z,24.63
2017-11-04T07:11:09.770Z,24.95
2017-11-04T07:13:36.394Z,23.90
2017-11-04T07:16:02.997Z,21.83
2017-11-04T07:18:29.609Z,23.55
2017-11-04T07:20:56.237Z,24.20
2017-11-04T07:23:22.852Z,25.48
2017-11-04T07:25:49.469Z,26.00
2017-11-04T07:28:16.089Z,27.45
2017-11-04T07:30:42.705Z,29.48
2017-11-04T07:33:09.319Z,23.42
2017-11-04T07:35:35.946Z,26.12
2017-11-04T07:38:02.650Z,25.95
2017-11-04T07:40:29.265Z,24.90
2017-11-04T07:42:55.930Z,23.85
2017-11-04T07:45:22.546Z,24.65
2017-11-04T07:47:49.299Z,25.80
2017-11-04T07:50:15.926Z,24.67
2017-11-04T07:52:42.533Z,24.20
2017-11-04T07:55:09.237Z,23.52
2017-11-04T07:57:35.863Z,26.20
2017-11-04T08:00:02.502Z,24.77
2017-11-04T08:02:29.109Z,25.85
2017-11-04T08:04:55.729Z,25.58
2017-11-04T08:07:22.338Z,29.98
2017-11-04T08:09:48.961Z,30.60
2017-11-04T08:12:15.570Z,26.35
2017-11-04T08:14:42.178Z,27.60
2017-11-04T08:17:08.802Z,28.27
2017-11-04T08:19:35.417Z,28.75
2017-11-04T08:22:02.038Z,28.02
2017-11-04T08:24:28.662Z,28.52
2017-11-04T08:26:55.273Z,25.77
2017-11-04T08:29:21.886Z,25.15
2017-11-04T08:31:48.530Z,29.05
2017-11-04T08:34:15.147Z,30.40
2017-11-04T08:36:41.764Z,35.33
2017-11-04T08:39:08.417Z,27.58
2017-11-04T08:41:35.031Z,28.02
2017-11-04T08:44:01.651Z,25.12
2017-11-04T08:46:28.266Z,27.52
2017-11-04T08:48:54.878Z,30.55
2017-11-04T08:51:21.505Z,30.45
2017-11-04T08:53:48.117Z,27.20
2017-11-04T08:56:14.728Z,28.20
2017-11-04T08:58:41.345Z,30.12
2017-11-04T09:01:07.974Z,29.42
2017-11-04T09:03:34.587Z,27.45
2017-11-04T09:06:01.213Z,27.48
2017-11-04T09:08:27.936Z,29.92
2017-11-04T09:10:54.542Z,32.10
2017-11-04T09:13:21.170Z,32.33
2017-11-04T09:15:47.789Z,29.00
2017-11-04T09:18:14.460Z,29.37
2017-11-04T09:20:44.053Z,28.92
2017-11-04T09:23:10.675Z,29.95
2017-11-04T09:25:37.330Z,30.00
2017-11-04T09:28:04.075Z,30.88
2017-11-04T09:30:30.685Z,30.67
2017-11-04T09:32:57.306Z,30.70
2017-11-04T09:35:24.008Z,31.23
2017-11-04T09:37:50.618Z,31.05
2017-11-04T09:40:17.313Z,31.45
2017-11-04T09:42:43.930Z,31.60
2017-11-04T09:45:10.540Z,29.52
2017-11-04T09:47:37.150Z,31.37
2017-11-04T09:50:03.782Z,29.77
2017-11-04T09:52:30.465Z,31.62
2017-11-04T09:54:57.078Z,31.35
2017-11-04T09:57:23.698Z,32.05
2017-11-04T09:59:50.306Z,31.42
2017-11-04T10:02:16.929Z,30.52
2017-11-04T10:04:43.545Z,31.52
2017-11-04T10:07:10.154Z,32.92
2017-11-04T10:09:36.834Z,32.75
2017-11-04T10:12:03.450Z,32.10
2017-11-04T10:14:30.118Z,33.72
2017-11-04T10:16:56.726Z,36.40
2017-11-04T10:19:23.401Z,34.78
2017-11-04T10:21:50.027Z,36.35
2017-11-04T10:24:16.638Z,34.65
2017-11-04T10:26:43.304Z,36.42
2017-11-04T10:29:09.934Z,39.17
2017-11-04T10:31:36.542Z,36.30
2017-11-04T10:34:03.163Z,36.33
2017-11-04T10:36:29.789Z,35.53
2017-11-04T10:38:56.509Z,35.75
2017-11-04T10:41:23.114Z,38.00
2017-11-04T10:43:49.747Z,36.97
2017-11-04T10:46:16.353Z,36.47
2017-11-04T10:48:42.974Z,34.55
2017-11-04T10:51:09.600Z,35.50
2017-11-04T10:53:36.221Z,40.03
2017-11-04T10:56:02.834Z,35.28
2017-11-04T10:58:29.517Z,38.13
2017-11-04T11:00:56.122Z,35.40
2017-11-04T11:03:22.749Z,35.22
2017-11-04T11:05:49.378Z,35.75
2017-11-04T11:08:16.065Z,34.47
2017-11-04T11:10:42.677Z,37.17
2017-11-04T11:13:09.300Z,36.90
2017-11-04T11:15:35.910Z,36.90
2017-11-04T11:18:02.522Z,39.15
2017-11-04T11:20:29.150Z,41.67
2017-11-04T11:22:55.756Z,37.25
2017-11-04T11:25:22.367Z,39.17
2017-11-04T11:27:49.002Z,35.58
2017-11-04T11:30:15.611Z,38.78
2017-11-04T11:32:42.426Z,37.65
2017-11-04T11:35:09.350Z,35.65
2017-11-04T11:37:36.367Z,34.10
2017-11-04T11:40:03.094Z,35.67
2017-11-04T11:42:31.029Z,40.40
2017-11-04T11:44:57.662Z,35.35
2017-11-04T11:47:24.276Z,36.70
2017-11-04T11:49:50.960Z,32.83
2017-11-04T11:52:17.604Z,35.25
2017-11-04T11:54:44.304Z,35.17
2017-11-04T11:57:10.925Z,34.30
2017-11-04T11:59:37.560Z,35.03
2017-11-04T12:02:04.220Z,34.78
2017-11-04T12:04:31.827Z,35.67
2017-11-04T12:06:59.958Z,38.13
2017-11-04T12:09:26.661Z,36.05
2017-11-04T12:11:53.297Z,38.35
2017-11-04T12:14:20.138Z,33.90
2017-11-04T12:16:47.435Z,37.42
2017-11-04T12:19:14.077Z,35.15
2017-11-04T12:21:40.701Z,35.88
2017-11-04T12:24:07.306Z,40.22
2017-11-04T12:26:33.929Z,38.85
2017-11-04T12:29:00.546Z,36.78
2017-11-04T12:31:27.221Z,38.00
2017-11-04T12:33:53.866Z,33.85
2017-11-04T12:36:20.474Z,37.50
2017-11-04T12:38:47.078Z,35.15
2017-11-04T12:41:13.702Z,35.00
2017-11-04T12:43:40.315Z,35.03
2017-11-04T12:46:06.918Z,41.63
2017-11-04T12:48:33.553Z,36.10
2017-11-04T12:51:00.234Z,33.88
2017-11-04T12:53:26.844Z,37.53
2017-11-04T12:55:53.466Z,35.53
2017-11-04T12:58:20.082Z,38.70
2017-11-04T13:00:46.698Z,36.45
2017-11-04T13:03:13.326Z,36.15
2017-11-04T13:05:39.933Z,37.08
2017-11-04T13:08:06.543Z,39.40
2017-11-04T13:10:33.161Z,39.47
2017-11-04T13:12:59.773Z,38.58
2017-11-04T13:15:26.406Z,41.95
2017-11-04T13:17:53.013Z,37.72
2017-11-04T13:20:19.617Z,46.95
2017-11-04T13:22:46.248Z,40.53
2017-11-04T13:25:12.864Z,37.10
2017-11-04T13:27:39.495Z,36.80
2017-11-04T13:30:06.117Z,38.00
2017-11-04T13:32:32.732Z,37.15
2017-11-04T13:34:59.345Z,37.33
2017-11-04T13:37:25.979Z,38.47
2017-11-04T13:39:52.590Z,36.40
2017-11-04T13:42:19.250Z,38.88
2017-11-04T13:44:45.877Z,37.33
2017-11-04T13:47:12.491Z,35.05
2017-11-04T13:49:39.131Z,34.03
2017-11-04T13:52:05.755Z,34.53
2017-11-04T13:54:32.360Z,36.10
2017-11-04T13:56:58.961Z,34.33
2017-11-04T13:59:25.585Z,34.17
2017-11-04T14:01:52.253Z,33.63
2017-11-04T14:04:18.901Z,35.55
2017-11-04T14:06:45.531Z,33.25
2017-11-04T14:09:12.158Z,30.10
2017-11-04T14:11:38.814Z,32.05
2017-11-04T14:14:05.431Z,33.00
2017-11-04T14:16:32.050Z,30.37
2017-11-04T14:18:58.663Z,31.40
2017-11-04T14:21:25.272Z,30.52
2017-11-04T14:23:51.899Z,32.80
2017-11-04T14:26:18.506Z,30.48
2017-11-04T14:28:45.194Z,29.75
2017-11-04T14:31:11.926Z,30.30
2017-11-04T14:33:38.530Z,30.27
2017-11-04T14:36:05.146Z,31.17
2017-11-04T14:38:31.774Z,31.02
2017-11-04T14:40:58.485Z,34.25
2017-11-04T14:43:25.085Z,31.92
2017-11-04T14:45:51.710Z,31.67
2017-11-04T14:48:18.321Z,30.70
2017-11-04T14:50:44.941Z,33.50
2017-11-04T14:53:11.566Z,30.30
2017-11-04T14:55:38.178Z,31.55
2017-11-04T14:58:04.801Z,30.98
2017-11-04T15:00:31.480Z,32.53
2017-11-04T15:02:58.152Z,34.38
2017-11-04T15:05:24.782Z,31.05
2017-11-04T15:07:51.393Z,34.53
2017-11-04T15:10:18.008Z,31.27
2017-11-04T15:12:44.688Z,31.95
2017-11-04T15:15:11.298Z,32.63
2017-11-04T15:17:37.909Z,37.60
2017-11-04T15:20:04.534Z,32.30
2017-11-04T15:22:31.155Z,33.97
2017-11-04T15:24:57.828Z,33.63
2017-11-04T15:27:24.433Z,30.23
2017-11-04T15:29:51.048Z,33.42
2017-11-04T15:32:17.683Z,33.58
2017-11-04T15:34:44.316Z,30.67
2017-11-04T15:37:10.971Z,35.08
2017-11-04T15:39:37.607Z,35.15
2017-11-04T15:42:04.216Z,34.78
2017-11-04T15:44:30.905Z,36.30
2017-11-04T15:46:57.637Z,32.42
2017-11-04T15:49:24.278Z,33.70
2017-11-04T15:51:50.893Z,33.50
2017-11-04T15:54:17.517Z,34.97
2017-11-04T15:56:44.194Z,34.35
2017-11-04T15:59:10.825Z,32.50
2017-11-04T16:01:37.644Z,33.70
2017-11-04T16:04:04.991Z,34.58
2017-11-04T16:06:31.754Z,33.85
2017-11-04T16:08:58.483Z,32.10
2017-11-04T16:11:25.202Z,32.78
2017-11-04T16:13:52.245Z,32.90
2017-11-04T16:16:19.907Z,31.90
2017-11-04T16:18:47.468Z,32.65
2017-11-04T16:21:15.616Z,33.00
2017-11-04T16:23:43.224Z,31.75
2017-11-04T16:26:10.484Z,34.30
2017-11-04T16:28:38.012Z,34.08
2017-11-04T16:31:05.498Z,34.45
2017-11-04T16:33:33.756Z,34.63
2017-11-04T16:36:01.131Z,35.25
2017-11-04T16:38:28.266Z,34.47
2017-11-04T16:40:55.720Z,34.20
2017-11-04T16:43:22.974Z,34.33
2017-11-04T16:45:50.283Z,35.25
2017-11-04T16:48:17.561Z,35.63
2017-11-04T16:50:44.968Z,31.05
2017-11-04T16:53:13.231Z,31.50
2017-11-04T16:55:40.674Z,30.88
2017-11-04T16:58:08.876Z,34.03
2017-11-04T17:00:36.207Z,31.70
2017-11-04T17:03:02.866Z,32.92
2017-11-04T17:05:29.481Z,31.20
2017-11-04T17:07:56.297Z,29.20
2017-11-04T17:10:23.025Z,30.05
2017-11-04T17:12:49.666Z,30.92
2017-11-04T17:15:16.286Z,31.30
2017-11-04T17:17:42.897Z,31.02
2017-11-04T17:20:09.510Z,29.92
2017-11-04T17:22:36.138Z,30.27
2017-11-04T17:25:02.746Z,30.27
2017-11-04T17:27:29.367Z,27.23
2017-11-04T17:29:56.036Z,30.30
2017-11-04T17:32:22.646Z,28.90
2017-11-04T17:34:49.270Z,28.70
2017-11-04T17:37:15.954Z,29.25
2017-11-04T17:39:42.555Z,31.95
2017-11-04T17:42:09.234Z,30.48
2017-11-04T17:44:35.842Z,33.38
2017-11-04T17:47:02.459Z,31.45
2017-11-04T17:49:29.088Z,29.75
2017-11-04T17:51:55.698Z,32.35
2017-11-04T17:54:22.313Z,32.38
2017-11-04T17:56:48.938Z,29.92
2017-11-04T17:59:15.550Z,31.65
2017-11-04T18:01:42.167Z,29.70
2017-11-04T18:04:08.789Z,29.52
2017-11-04T18:06:35.401Z,29.20
2017-11-04T18:09:02.023Z,31.50
2017-11-04T18:11:28.645Z,31.95
2017-11-04T18:13:55.264Z,33.35
2017-11-04T18:16:22.017Z,32.05
2017-11-04T18:18:48.655Z,32.40
2017-11-04T18:21:15.260Z,30.60
2017-11-04T18:23:41.865Z,32.25
2017-11-04T18:26:08.535Z,33.10
2017-11-04T18:28:35.145Z,31.80
2017-11-04T18:31:01.765Z,33.80
2017-11-04T18:33:28.387Z,31.60
2017-11-04T18:35:55.087Z,31.67
2017-11-04T18:38:21.694Z,31.27
2017-11-04T18:40:48.370Z,34.17
2017-11-04T18:43:15.002Z,33.90
2017-11-04T18:45:41.618Z,31.15
2017-11-04T18:48:08.245Z,31.08
2017-11-04T18:50:34.854Z,33.03
2017-11-04T18:53:01.563Z,34.25
2017-11-04T18:55:28.202Z,31.92
2017-11-04T18:57:54.820Z,34.00
2017-11-04T19:00:21.457Z,34.15
2017-11-04T19:02:48.065Z,32.80
2017-11-04T19:05:14.765Z,30.95
2017-11-04T19:07:41.381Z,32.65
2017-11-04T19:10:08.002Z,30.95
2017-11-04T19:12:34.624Z,32.40
2017-11-04T19:15:01.253Z,30.95
2017-11-04T19:17:27.951Z,30.80
2017-11-04T19:19:54.556Z,32.70
2017-11-04T19:22:21.230Z,31.65
2017-11-04T19:24:47.845Z,30.85
2017-11-04T19:27:14.462Z,29.83
2017-11-04T19:29:41.090Z,32.28
2017-11-04T19:32:07.701Z,31.10
2017-11-04T19:34:34.313Z,32.63
2017-11-04T19:37:00.938Z,29.85
2017-11-04T19:39:27.608Z,33.30
2017-11-04T19:41:54.218Z,31.60
2017-11-04T19:44:20.840Z,32.05
2017-11-04T19:46:47.463Z,31.52
2017-11-04T19:49:14.158Z,33.90
2017-11-04T19:51:40.786Z,31.65
2017-11-04T19:54:07.459Z,34.90
2017-11-04T19:56:34.066Z,33.22
2017-11-04T19:59:00.695Z,34.08
2017-11-04T20:01:27.304Z,31.55
2017-11-04T20:03:53.911Z,32.75
2017-11-04T20:06:20.529Z,32.72
2017-11-04T20:08:47.170Z,32.03
2017-11-04T20:11:13.801Z,32.03
2017-11-04T20:13:40.415Z,33.92
2017-11-04T20:16:07.088Z,31.85
2017-11-04T20:18:33.726Z,34.03
2017-11-04T20:21:00.362Z,32.40
2017-11-04T20:23:26.985Z,31.60
2017-11-04T20:25:53.589Z,32.95
2017-11-04T20:28:20.209Z,30.58
2017-11-04T20:30:46.833Z,31.10
2017-11-04T20:33:13.457Z,33.53
2017-11-04T20:35:40.078Z,34.80
2017-11-04T20:38:06.732Z,35.50
2017-11-04T20:40:33.344Z,34.88
2017-11-04T20:43:00.012Z,34.53
2017-11-04T20:45:26.623Z,32.85
2017-11-04T20:47:53.290Z,32.13
2017-11-04T20:50:19.909Z,34.03
2017-11-04T20:52:46.516Z,33.10
2017-11-04T20:55:13.128Z,31.27
2017-11-04T20:57:39.754Z,31.98
2017-11-04T21:00:06.382Z,33.25
2017-11-04T21:02:32.992Z,33.22
2017-11-04T21:04:59.663Z,29.65
2017-11-04T21:07:26.266Z,31.58
2017-11-04T21:09:52.883Z,31.17
2017-11-04T21:12:19.558Z,32.95
2017-11-04T21:14:46.161Z,33.65
2017-11-04T21:17:12.771Z,33.38
2017-11-04T21:19:39.493Z,34.65
2017-11-04T21:22:06.102Z,35.95
2017-11-04T21:24:32.779Z,31.40
2017-11-04T21:26:59.420Z,31.75
2017-11-04T21:29:26.026Z,31.60
2017-11-04T21:31:52.650Z,34.05
2017-11-04T21:34:19.338Z,31.60
2017-11-04T21:36:45.979Z,31.75
2017-11-04T21:39:12.610Z,34.22
2017-11-04T21:41:39.217Z,31.98
2017-11-04T21:44:05.890Z,32.67
2017-11-04T21:46:32.525Z,29.77
2017-11-04T21:48:59.138Z,31.12
2017-11-04T21:51:25.771Z,33.55
2017-11-04T21:53:52.382Z,33.75
2017-11-04T21:56:18.998Z,30.88
2017-11-04T21:58:45.626Z,31.55
2017-11-04T22:01:12.262Z,32.10
2017-11-04T22:03:38.876Z,32.25
2017-11-04T22:06:05.494Z,30.95
2017-11-04T22:08:32.173Z,31.12
2017-11-04T22:10:58.809Z,32.60
2017-11-04T22:13:25.438Z,33.03
2017-11-04T22:15:52.042Z,33.05
2017-11-04T22:18:18.667Z,30.27
2017-11-04T22:20:45.270Z,31.27
2017-11-04T22:23:11.910Z,29.67
2017-11-04T22:25:38.529Z,32.70
2017-11-04T22:28:05.186Z,31.30
2017-11-04T22:30:31.794Z,28.80
2017-11-04T22:32:58.433Z,28.40
2017-11-04T22:35:25.055Z,30.25
2017-11-04T22:37:51.668Z,28.25
2017-11-04T22:40:18.298Z,28.85
2017-11-04T22:42:44.924Z,31.30
2017-11-04T22:45:11.537Z,29.48
2017-11-04T22:47:38.166Z,28.48
2017-11-04T22:50:04.779Z,29.10
2017-11-04T22:52:31.387Z,30.77
2017-11-04T22:54:58.117Z,29.83
2017-11-04T22:57:24.721Z,29.77
2017-11-04T22:59:51.348Z,32.17
2017-11-04T23:02:17.963Z,33.22
2017-11-04T23:04:44.565Z,32.83
2017-11-04T23:07:11.209Z,30.98
2017-11-04T23:09:37.807Z,31.42
2017-11-04T23:12:04.430Z,31.65
2017-11-04T23:14:31.037Z,30.80
2017-11-04T23:16:57.645Z,28.55
2017-11-04T23:19:24.274Z,32.25
2017-11-04T23:21:50.894Z,29.80
2017-11-04T23:24:17.594Z,31.67
2017-11-04T23:26:44.222Z,31.58
2017-11-04T23:29:10.840Z,30.52
2017-11-04T23:31:37.438Z,30.83
2017-11-04T23:34:04.133Z,30.17
2017-11-04T23:36:30.748Z,32.60
2017-11-04T23:38:57.455Z,31.20
2017-11-04T23:41:24.074Z,31.37
2017-11-04T23:43:50.678Z,28.70
2017-11-04T23:46:17.334Z,29.90
2017-11-04T23:48:43.957Z,30.65
2017-11-04T23:51:10.619Z,33.35
2017-11-04T23:53:37.229Z,31.02
2017-11-04T23:56:03.863Z,31.35
2017-11-04T23:58:30.479Z,30.75
